createdAt,value
2024-03-28T00:01:11.054Z,98872.44
2024-03-28T01:52:21.456Z,99136.27
2024-03-28T01:54:49.964Z,99145.80
2024-03-28T01:57:19.098Z,99142.20
2024-03-28T01:59:47.629Z,99127.57
2024-03-28T02:02:15.969Z,99123.78
2024-03-28T02:04:44.195Z,99124.13
2024-03-28T02:07:11.892Z,99133.46
2024-03-28T02:09:39.681Z,99137.64
2024-03-28T02:12:09.871Z,99120.77
2024-03-28T02:14:38.983Z,99093.02
2024-03-28T02:17:07.476Z,99007.86
2024-03-28T02:19:37.898Z,99034.80
2024-03-28T02:22:05.608Z,99021.33
2024-03-28T02:24:33.943Z,99035.45
2024-03-28T02:27:01.745Z,99041.25
2024-03-28T02:29:30.087Z,99015.92
2024-03-28T02:31:57.785Z,98993.89
2024-03-28T02:34:25.543Z,99013.02
2024-03-28T02:36:53.115Z,99026.95
2024-03-28T02:39:20.792Z,99033.48
2024-03-28T02:41:48.454Z,99031.60
2024-03-28T02:44:16.096Z,99026.45
2024-03-28T02:46:44.871Z,99038.01
2024-03-28T02:53:23.167Z,99077.63
2024-03-28T02:55:51.990Z,99099.30
2024-03-28T02:58:21.230Z,99107.90
2024-03-28T03:00:51.338Z,99111.42
2024-03-28T03:03:19.871Z,99121.71
2024-03-28T03:05:50.778Z,99138.73
2024-03-28T03:08:18.730Z,99137.70
2024-03-28T03:10:46.833Z,99132.72
2024-03-28T03:13:14.842Z,99123.78
2024-03-28T03:15:52.477Z,99126.23
2024-03-28T03:18:26.830Z,99139.90
2024-03-28T03:21:02.477Z,99149.70
2024-03-28T03:23:38.760Z,99162.86
2024-03-28T03:26:35.904Z,99158.05
2024-03-28T03:29:22.433Z,99149.61
2024-03-28T03:32:11.135Z,99166.50
2024-03-28T03:34:43.370Z,99173.79
2024-03-28T03:37:22.059Z,99187.11
2024-03-28T03:39:57.912Z,99208.86
2024-03-28T03:42:25.678Z,99212.19
2024-03-28T03:44:53.567Z,99213.23
2024-03-28T03:47:21.318Z,99211.36
2024-03-28T03:49:50.020Z,99218.79
2024-03-28T03:52:17.627Z,99223.48
2024-03-28T03:54:45.901Z,99224.71
2024-03-28T03:57:13.707Z,99232.13
2024-03-28T03:59:41.469Z,99245.04
2024-03-28T04:02:09.636Z,99251.92
2024-03-28T04:04:38.261Z,99259.34
2024-03-28T04:07:07.371Z,99266.39
2024-03-28T04:09:36.096Z,99270.84
2024-03-28T04:12:03.939Z,99273.41
2024-03-28T04:14:32.297Z,99281.33
2024-03-28T04:17:00.083Z,99290.80
2024-03-28T04:19:28.298Z,99299.07
2024-03-28T04:21:56.978Z,99305.59
2024-03-28T04:24:24.891Z,99312.51
2024-03-28T04:26:54.430Z,99319.60
2024-03-28T04:29:22.143Z,99323.73
2024-03-28T04:31:49.752Z,99316.83
2024-03-28T04:34:17.553Z,99315.95
2024-03-28T04:36:45.211Z,99321.23
2024-03-28T04:39:16.121Z,99326.71
2024-03-28T04:41:43.671Z,99384.71
2024-03-28T04:44:12.051Z,99405.36
2024-03-28T04:46:39.679Z,99396.52
2024-03-28T04:49:07.320Z,99403.09
2024-03-28T04:51:34.969Z,99419.89
2024-03-28T04:54:02.673Z,99425.42
2024-03-28T04:56:30.347Z,99419.75
2024-03-28T04:58:58.088Z,99407.35
2024-03-28T05:01:25.756Z,99393.89
2024-03-28T05:03:53.722Z,99390.98
2024-03-28T05:06:21.351Z,99405.17
2024-03-28T05:08:50.657Z,99432.63
2024-03-28T05:11:19.228Z,99458.20
2024-03-28T05:13:47.711Z,99472.39
2024-03-28T05:16:16.303Z,99484.49
2024-03-28T05:18:44.714Z,99488.86
2024-03-28T05:21:12.906Z,99497.83
2024-03-28T05:23:41.331Z,99499.22
2024-03-28T05:26:09.099Z,99494.56
2024-03-28T05:28:37.809Z,99498.49
2024-03-28T05:31:15.209Z,99496.66
2024-03-28T05:33:43.057Z,99506.33
2024-03-28T05:36:12.328Z,99514.80
2024-03-28T05:38:39.901Z,99523.65
2024-03-28T05:41:07.634Z,99522.48
2024-03-28T05:43:35.245Z,99520.42
2024-03-28T05:46:10.962Z,99528.36
2024-03-28T05:48:38.744Z,99533.55
2024-03-28T05:51:06.371Z,99541.17
2024-03-28T05:53:34.653Z,99541.88
2024-03-28T05:56:02.446Z,99544.95
2024-03-28T05:58:30.355Z,99554.77
2024-03-28T06:01:00.903Z,99561.31
2024-03-28T06:03:28.939Z,99566.27
2024-03-28T06:05:57.444Z,99571.56
2024-03-28T06:08:27.324Z,99583.30
2024-03-28T06:11:00.549Z,99584.38
2024-03-28T06:13:34.230Z,99589.73
2024-03-28T06:16:02.728Z,99590.09
2024-03-28T06:18:35.465Z,99593.76
2024-03-28T06:21:05.733Z,99599.30
2024-03-28T06:23:34.569Z,99607.10
2024-03-28T06:26:03.787Z,99607.99
2024-03-28T06:28:32.541Z,99611.48
2024-03-28T06:31:01.064Z,99620.34
2024-03-28T06:33:31.157Z,99631.05
2024-03-28T06:35:59.926Z,99642.58
2024-03-28T06:38:30.915Z,99654.38
2024-03-28T06:41:00.484Z,99662.38
2024-03-28T06:43:28.308Z,99661.41
2024-03-28T06:45:56.656Z,99658.73
2024-03-28T06:48:25.375Z,99658.61
2024-03-28T06:50:52.970Z,99664.70
2024-03-28T06:53:20.754Z,99669.60
2024-03-28T06:55:58.915Z,99675.89
2024-03-28T06:58:26.864Z,99679.03
2024-03-28T07:01:03.343Z,99680.09
2024-03-28T07:03:31.020Z,99686.28
2024-03-28T07:05:59.144Z,99691.44
2024-03-28T07:08:28.360Z,99696.46
2024-03-28T07:10:56.300Z,99697.92
2024-03-28T07:13:25.571Z,99702.34
2024-03-28T07:15:53.199Z,99708.28
2024-03-28T07:18:20.988Z,99719.94
2024-03-28T07:20:49.491Z,99725.05
2024-03-28T07:23:17.155Z,99728.08
2024-03-28T07:25:44.797Z,99733.30
2024-03-28T07:28:12.539Z,99734.05
2024-03-28T07:30:43.015Z,99738.05
2024-03-28T07:33:11.636Z,99746.91
2024-03-28T07:35:39.222Z,99745.58
2024-03-28T07:38:07.573Z,99747.89
2024-03-28T07:40:36.534Z,99752.95
2024-03-28T07:43:06.711Z,99759.75
2024-03-28T07:45:37.381Z,99763.58
2024-03-28T07:48:09.331Z,99766.39
2024-03-28T07:50:39.141Z,99762.30
2024-03-28T07:53:06.944Z,99765.44
2024-03-28T07:55:34.631Z,99769.95
2024-03-28T07:58:02.615Z,99770.34
2024-03-28T08:00:33.340Z,99780.90
2024-03-28T08:03:16.738Z,99790.79
2024-03-28T08:05:44.929Z,99786.17
2024-03-28T08:08:12.717Z,99788.61
2024-03-28T08:10:40.764Z,99790.04
2024-03-28T08:13:08.354Z,99788.50
2024-03-28T08:15:36.053Z,99787.34
2024-03-28T08:18:04.765Z,99789.14
2024-03-28T08:20:32.311Z,99789.55
2024-03-28T08:22:59.912Z,99791.71
2024-03-28T08:25:27.649Z,99789.54
2024-03-28T08:27:57.748Z,99785.48
2024-03-28T08:30:26.774Z,99778.48
2024-03-28T08:32:56.496Z,99774.20
2024-03-28T08:35:26.210Z,99775.63
2024-03-28T08:37:55.233Z,99777.58
2024-03-28T08:40:23.354Z,99773.01
2024-03-28T08:42:51.031Z,99777.40
2024-03-28T08:45:20.886Z,99773.83
2024-03-28T08:47:48.566Z,99772.16
2024-03-28T08:50:20.364Z,99764.77
2024-03-28T08:52:48.272Z,99761.35
2024-03-28T08:55:19.340Z,99755.86
2024-03-28T08:57:46.975Z,99754.36
2024-03-28T09:00:16.575Z,99748.36
2024-03-28T09:02:44.510Z,99748.73
2024-03-28T09:05:12.564Z,99752.23
2024-03-28T09:07:42.345Z,99752.81
2024-03-28T09:10:19.328Z,99754.06
2024-03-28T09:12:49.509Z,99754.11
2024-03-28T09:15:17.870Z,99749.48
2024-03-28T09:17:46.262Z,99747.80
2024-03-28T09:20:14.855Z,99742.14
2024-03-28T09:22:44.687Z,99743.92
2024-03-28T09:25:14.867Z,99742.08
2024-03-28T09:27:42.554Z,99744.35
2024-03-28T09:30:12.269Z,99745.79
2024-03-28T09:32:39.896Z,99748.21
2024-03-28T09:35:09.657Z,99743.77
2024-03-28T09:37:42.511Z,99745.17
2024-03-28T09:40:14.907Z,99740.02
2024-03-28T09:42:46.210Z,99730.75
2024-03-28T09:45:15.860Z,99724.05
2024-03-28T09:47:43.781Z,99722.00
2024-03-28T09:50:19.376Z,99720.46
2024-03-28T09:52:53.632Z,99717.20
2024-03-28T09:55:26.747Z,99714.99
2024-03-28T09:57:54.862Z,99725.94
2024-03-28T10:00:23.894Z,99725.11
2024-03-28T10:02:58.676Z,99717.52
2024-03-28T10:05:28.147Z,99723.08
2024-03-28T10:08:20.839Z,99732.81
2024-03-28T10:11:06.705Z,99745.65
2024-03-28T10:13:40.055Z,99754.52
2024-03-28T10:16:08.072Z,99743.64
2024-03-28T10:18:36.087Z,99735.02
2024-03-28T10:21:04.275Z,99738.70
2024-03-28T10:23:33.082Z,99739.91
2024-03-28T10:26:05.514Z,99742.16
2024-03-28T10:28:37.056Z,99742.33
2024-03-28T10:31:05.934Z,99743.88
2024-03-28T10:33:37.148Z,99748.36
2024-03-28T10:36:06.205Z,99740.40
2024-03-28T10:38:36.285Z,99740.94
2024-03-28T10:41:06.807Z,99730.88
2024-03-28T10:43:35.381Z,99721.90
2024-03-28T10:46:19.496Z,99723.81
2024-03-28T10:48:51.404Z,99723.84
2024-03-28T10:51:23.550Z,99723.16
2024-03-28T10:54:29.451Z,99727.85
2024-03-28T10:56:58.833Z,99735.33
2024-03-28T10:59:30.190Z,99733.78
2024-03-28T11:01:59.769Z,99733.98
2024-03-28T11:04:28.190Z,99741.97
2024-03-28T11:06:59.756Z,99746.16
2024-03-28T11:09:30.561Z,99753.45
2024-03-28T11:11:58.475Z,99750.84
2024-03-28T11:14:27.742Z,99751.52
2024-03-28T11:17:06.749Z,99749.30
2024-03-28T11:19:35.694Z,99741.33
2024-03-28T11:22:03.520Z,99740.13
2024-03-28T11:24:32.702Z,99736.15
2024-03-28T11:27:02.327Z,99731.67
2024-03-28T11:29:32.660Z,99729.59
2024-03-28T11:32:03.803Z,99729.60
2024-03-28T11:34:31.858Z,99725.80
2024-03-28T11:36:59.452Z,99731.02
2024-03-28T11:39:32.714Z,99732.08
2024-03-28T11:42:00.336Z,99731.21
2024-03-28T11:44:35.642Z,99732.45
2024-03-28T11:47:05.488Z,99731.94
2024-03-28T11:49:35.348Z,99723.08
2024-03-28T11:52:06.813Z,99725.86
2024-03-28T11:54:35.323Z,99728.13
2024-03-28T11:57:04.927Z,99727.26
2024-03-28T11:59:39.145Z,99725.37
2024-03-28T12:02:06.915Z,99720.17
2024-03-28T12:04:38.959Z,99721.89
2024-03-28T12:07:06.599Z,99724.16
2024-03-28T12:09:38.795Z,99725.01
2024-03-28T12:12:08.533Z,99725.86
2024-03-28T12:14:38.280Z,99724.09
2024-03-28T12:17:09.157Z,99728.58
2024-03-28T12:19:38.783Z,99729.61
2024-03-28T12:22:07.557Z,99726.11
2024-03-28T12:24:36.104Z,99731.14
2024-03-28T12:29:45.954Z,99738.44
2024-03-28T12:32:19.684Z,99741.55
2024-03-28T12:34:54.926Z,99735.09
2024-03-28T12:37:23.277Z,99738.71
2024-03-28T12:39:51.599Z,99744.06
2024-03-28T12:42:31.274Z,99743.88
2024-03-28T12:47:41.646Z,99741.20
2024-03-28T12:50:11.192Z,99746.89
2024-03-28T12:52:39.145Z,99750.17
2024-03-28T12:55:08.520Z,99753.27
2024-03-28T12:57:40.725Z,99750.96
2024-03-28T13:00:09.525Z,99744.84
2024-03-28T13:02:40.771Z,99738.88
2024-03-28T13:05:12.705Z,99736.08
2024-03-28T13:07:44.146Z,99732.77
2024-03-28T13:10:12.489Z,99743.73
2024-03-28T13:12:41.533Z,99744.44
2024-03-28T13:15:11.984Z,99751.23
2024-03-28T13:17:40.168Z,99745.44
2024-03-28T13:20:10.381Z,99743.34
2024-03-28T13:22:43.386Z,99746.47
2024-03-28T13:25:14.745Z,99741.79
2024-03-28T13:27:45.187Z,99738.32
2024-03-28T13:30:13.554Z,99736.91
2024-03-28T13:32:42.855Z,99739.86
2024-03-28T13:35:10.987Z,99733.23
2024-03-28T13:37:41.426Z,99737.02
2024-03-28T13:40:09.515Z,99741.86
2024-03-28T13:42:40.115Z,99742.31
2024-03-28T13:45:09.984Z,99739.27
2024-03-28T13:47:38.514Z,99732.77
2024-03-28T13:50:06.736Z,99731.66
2024-03-28T13:52:34.360Z,99723.58
2024-03-28T13:55:09.018Z,99718.00
2024-03-28T13:57:49.507Z,99714.70
2024-03-28T14:00:19.134Z,99711.92
2024-03-28T14:02:47.003Z,99715.48
2024-03-28T14:05:15.667Z,99722.32
2024-03-28T14:07:43.774Z,99725.13
2024-03-28T14:10:11.520Z,99725.30
2024-03-28T14:12:40.937Z,99725.98
2024-03-28T14:15:09.209Z,99721.59
2024-03-28T14:17:36.822Z,99719.42
2024-03-28T14:20:05.041Z,99722.63
2024-03-28T14:22:32.621Z,99720.96
2024-03-28T14:25:00.404Z,99715.84
2024-03-28T14:27:28.299Z,99713.52
2024-03-28T14:29:58.196Z,99716.11
2024-03-28T14:32:30.963Z,99713.30
2024-03-28T14:35:01.299Z,99707.19
2024-03-28T14:37:29.247Z,99707.35
2024-03-28T14:39:56.778Z,99704.21
2024-03-28T14:42:24.377Z,99709.81
2024-03-28T14:44:54.293Z,99712.83
2024-03-28T14:47:21.994Z,99712.69
2024-03-28T14:50:08.340Z,99705.89
2024-03-28T14:52:37.768Z,99703.10
2024-03-28T14:55:07.971Z,99699.02
2024-03-28T14:57:36.486Z,99697.75
2024-03-28T15:00:04.627Z,99689.84
2024-03-28T15:02:32.527Z,99689.41
2024-03-28T15:05:00.411Z,99697.48
2024-03-28T15:07:28.299Z,99689.09
2024-03-28T15:09:58.066Z,99683.85
2024-03-28T15:12:26.891Z,99687.77
2024-03-28T15:14:57.136Z,99687.95
2024-03-28T15:17:26.029Z,99693.79
2024-03-28T15:19:55.831Z,99695.09
2024-03-28T15:22:23.489Z,99698.09
2024-03-28T15:24:52.939Z,99689.25
2024-03-28T15:27:21.746Z,99688.36
2024-03-28T15:29:51.423Z,99687.67
2024-03-28T15:32:19.794Z,99687.41
2024-03-28T15:34:47.510Z,99686.89
2024-03-28T15:37:19.272Z,99684.67
2024-03-28T15:39:46.857Z,99688.68
2024-03-28T15:42:16.302Z,99688.80
2024-03-28T15:44:43.994Z,99688.34
2024-03-28T15:47:11.914Z,99691.33
2024-03-28T15:49:41.041Z,99690.81
2024-03-28T15:52:10.016Z,99687.14
2024-03-28T15:54:38.473Z,99686.06
2024-03-28T15:57:07.897Z,99685.34
2024-03-28T15:59:35.975Z,99686.48
2024-03-28T16:02:04.358Z,99687.30
2024-03-28T16:04:36.684Z,99688.95
2024-03-28T16:07:07.858Z,99684.69
2024-03-28T16:09:39.089Z,99686.18
2024-03-28T16:12:09.312Z,99689.23
2024-03-28T16:14:37.502Z,99689.84
2024-03-28T16:17:07.922Z,99692.71
2024-03-28T16:19:38.463Z,99702.71
2024-03-28T16:22:06.142Z,99700.69
2024-03-28T16:24:34.431Z,99703.02
2024-03-28T16:27:04.032Z,99702.53
2024-03-28T16:29:32.474Z,99705.38
2024-03-28T16:32:02.090Z,99705.60
2024-03-28T16:34:31.142Z,99701.80
2024-03-28T16:37:00.284Z,99697.85
2024-03-28T16:39:32.267Z,99693.72
2024-03-28T16:42:02.697Z,99697.59
2024-03-28T16:44:31.865Z,99710.00
2024-03-28T16:46:59.936Z,99715.61
2024-03-28T16:49:32.070Z,99719.64
2024-03-28T16:52:02.853Z,99720.19
2024-03-28T16:54:30.500Z,99717.95
2024-03-28T16:56:58.723Z,99720.77
2024-03-28T16:59:28.047Z,99725.48
2024-03-28T17:01:56.245Z,99727.25
2024-03-28T17:04:27.342Z,99729.01
2024-03-28T17:06:56.303Z,99727.46
2024-03-28T17:09:24.206Z,99722.09
2024-03-28T17:11:52.704Z,99721.92
2024-03-28T17:14:21.608Z,99722.08
2024-03-28T17:16:50.451Z,99719.14
2024-03-28T17:19:20.030Z,99720.20
2024-03-28T17:21:48.438Z,99720.39
2024-03-28T17:24:19.455Z,99728.73
2024-03-28T17:26:49.023Z,99734.84
2024-03-28T17:29:17.637Z,99734.85
2024-03-28T17:31:52.762Z,99738.85
2024-03-28T17:34:20.479Z,99739.38
2024-03-28T17:36:50.547Z,99743.90
2024-03-28T17:39:18.530Z,99749.64
2024-03-28T17:41:51.760Z,99752.59
2024-03-28T17:44:19.935Z,99762.85
2024-03-28T17:46:48.826Z,99777.98
2024-03-28T17:49:21.702Z,99778.84
2024-03-28T17:51:50.683Z,99781.82
2024-03-28T17:54:20.857Z,99786.84
2024-03-28T17:56:49.523Z,99786.33
2024-03-28T17:59:17.654Z,99793.27
2024-03-28T18:01:45.669Z,99797.79
2024-03-28T18:04:15.339Z,99799.71
2024-03-28T18:06:43.505Z,99802.66
2024-03-28T18:09:12.244Z,99805.80
2024-03-28T18:11:40.068Z,99805.27
2024-03-28T18:14:10.043Z,99807.52
2024-03-28T18:16:40.677Z,99810.13
2024-03-28T18:19:11.032Z,99819.67
2024-03-28T18:21:41.139Z,99822.45
2024-03-28T18:24:12.098Z,99826.09
2024-03-28T18:26:40.376Z,99829.73
2024-03-28T18:29:08.643Z,99835.47
2024-03-28T18:31:38.135Z,99834.08
2024-03-28T18:34:05.926Z,99833.05
2024-03-28T18:36:35.777Z,99831.65
2024-03-28T18:39:04.806Z,99833.58
2024-03-28T18:41:32.674Z,99844.51
2024-03-28T18:44:03.658Z,99851.97
2024-03-28T18:46:36.119Z,99855.61
2024-03-28T18:49:05.297Z,99858.56
2024-03-28T18:51:33.194Z,99869.30
2024-03-28T18:54:01.055Z,99875.34
2024-03-28T18:56:29.826Z,99890.09
2024-03-28T18:58:58.048Z,99888.52
2024-03-28T19:01:29.540Z,99893.01
2024-03-28T19:03:57.429Z,99887.61
2024-03-28T19:06:29.553Z,99895.23
2024-03-28T19:08:57.603Z,99893.48
2024-03-28T19:11:25.489Z,99890.86
2024-03-28T19:13:53.139Z,99896.59
2024-03-28T19:16:20.832Z,99902.45
2024-03-28T19:18:48.624Z,99898.09
2024-03-28T19:21:17.832Z,99894.77
2024-03-28T19:23:47.742Z,99896.84
2024-03-28T19:26:15.933Z,99899.59
2024-03-28T19:28:44.050Z,99906.34
2024-03-28T19:31:11.776Z,99904.08
2024-03-28T19:33:39.756Z,99904.06
2024-03-28T19:36:08.985Z,99909.24
2024-03-28T19:38:36.785Z,99912.86
2024-03-28T19:41:08.651Z,99917.02
2024-03-28T19:43:36.897Z,99916.66
2024-03-28T19:46:08.252Z,99916.99
2024-03-28T19:48:36.419Z,99919.23
2024-03-28T19:51:08.179Z,99920.61
2024-03-28T19:53:36.111Z,99921.98
2024-03-28T19:56:08.308Z,99921.64
2024-03-28T19:58:36.361Z,99929.60
2024-03-28T20:01:05.308Z,99925.79
2024-03-28T20:03:33.770Z,99925.94
2024-03-28T20:06:01.563Z,99926.98
2024-03-28T20:08:31.135Z,99929.23
2024-03-28T20:10:59.011Z,99931.46
2024-03-28T20:13:27.572Z,99939.23
2024-03-28T20:15:57.613Z,99941.31
2024-03-28T20:18:27.001Z,99941.30
2024-03-28T20:20:55.126Z,99944.23
2024-03-28T20:23:23.534Z,99951.36
2024-03-28T20:28:34.833Z,99959.33
2024-03-28T20:31:05.170Z,99957.07
2024-03-28T20:33:33.350Z,99957.77
2024-03-28T20:36:01.063Z,99955.67
2024-03-28T20:38:28.877Z,99957.05
2024-03-28T20:40:57.880Z,99957.91
2024-03-28T20:43:25.847Z,99960.69
2024-03-28T20:45:55.004Z,99959.82
2024-03-28T20:48:22.582Z,99959.98
2024-03-28T20:50:53.317Z,99961.52
2024-03-28T20:53:21.233Z,99966.55
2024-03-28T20:55:50.728Z,99967.58
2024-03-28T20:58:18.803Z,99971.77
2024-03-28T21:00:46.448Z,99973.67
2024-03-28T21:03:14.045Z,99972.61
2024-03-28T21:05:42.052Z,99970.18
2024-03-28T21:08:28.367Z,99969.84
2024-03-28T21:11:00.861Z,99970.20
2024-03-28T21:13:31.138Z,99972.30
2024-03-28T21:15:58.613Z,99968.65
2024-03-28T21:18:27.413Z,99962.04
2024-03-28T21:20:56.160Z,99965.84
2024-03-28T21:23:24.310Z,99968.78
2024-03-28T21:25:53.408Z,99974.33
2024-03-28T21:28:21.195Z,99980.02
2024-03-28T21:30:48.916Z,99982.09
2024-03-28T21:33:16.735Z,99983.09
2024-03-28T21:35:45.720Z,99986.71
2024-03-28T21:38:15.887Z,99987.56
2024-03-28T21:40:54.160Z,99989.30
2024-03-28T21:43:21.886Z,99988.58
2024-03-28T21:45:57.923Z,99987.52
2024-03-28T21:48:27.171Z,99992.54
2024-03-28T21:50:54.918Z,99991.13
2024-03-28T21:53:23.178Z,99995.27
2024-03-28T21:56:08.225Z,100000.45
2024-03-28T21:58:36.951Z,100001.30
2024-03-28T22:01:09.364Z,99999.71
2024-03-28T22:03:41.255Z,100013.52
2024-03-28T22:06:09.634Z,100017.14
2024-03-28T22:08:39.852Z,100016.77
2024-03-28T22:11:14.039Z,100018.45
2024-03-28T22:13:44.035Z,100018.27
2024-03-28T22:16:13.808Z,100024.48
2024-03-28T22:18:42.211Z,100022.37
2024-03-28T22:21:12.639Z,100022.33
2024-03-28T22:23:40.210Z,100024.55
2024-03-28T22:26:07.807Z,100025.57
2024-03-28T22:28:36.236Z,100032.31
2024-03-28T22:31:04.637Z,100031.42
2024-03-28T22:33:32.197Z,100040.06
2024-03-28T22:36:01.275Z,100048.00
2024-03-28T22:38:29.298Z,100061.49
2024-03-28T22:40:58.409Z,100064.95
2024-03-28T22:43:27.337Z,100070.64
2024-03-28T22:46:00.590Z,100080.84
2024-03-28T22:48:28.534Z,100083.58
2024-03-28T22:50:57.250Z,100089.30
2024-03-28T22:53:24.835Z,100089.63
2024-03-28T22:55:59.681Z,100091.16
2024-03-28T22:58:27.631Z,100094.61
2024-03-28T23:00:57.419Z,100100.84
2024-03-28T23:03:27.012Z,100107.92
2024-03-28T23:06:05.438Z,100110.16
2024-03-28T23:08:34.367Z,100115.16
2024-03-28T23:11:02.724Z,100115.33
2024-03-28T23:13:31.822Z,100120.67
2024-03-28T23:16:00.748Z,100118.93
2024-03-28T23:18:28.641Z,100123.77
2024-03-28T23:20:56.222Z,100120.98
2024-03-28T23:23:24.811Z,100133.96
2024-03-28T23:25:53.211Z,100144.88
2024-03-28T23:28:21.052Z,100146.25
2024-03-28T23:30:48.852Z,100153.68
2024-03-28T23:33:16.475Z,100157.29
2024-03-28T23:35:44.242Z,100156.58
2024-03-28T23:38:11.888Z,100157.23
2024-03-28T23:40:39.897Z,100164.83
2024-03-28T23:43:08.488Z,100164.81
2024-03-28T23:45:37.251Z,100170.88
2024-03-28T23:48:05.866Z,100178.11
2024-03-28T23:50:33.835Z,100182.09
2024-03-28T23:53:04.165Z,100179.83
2024-03-28T23:55:34.651Z,100187.10
2024-03-28T23:58:03.081Z,100187.27
